createdAt,value
2019-03-17T00:02:24.227Z,96882.39
2019-03-17T00:04:54.640Z,96871.77
2019-03-17T00:07:25.124Z,96869.37
2019-03-17T00:09:55.398Z,96874.16
2019-03-17T00:12:26.854Z,96871.59
2019-03-17T00:15:05.118Z,96873.97
2019-03-17T00:17:29.431Z,96875.05
2019-03-17T00:19:59.850Z,96871.09
2019-03-17T00:22:30.103Z,96867.59
2019-03-17T00:25:09.088Z,96864.45
2019-03-17T00:27:32.499Z,96866.02
2019-03-17T00:30:02.936Z,96857.47
2019-03-17T00:32:33.282Z,96856.95
2019-03-17T00:35:03.848Z,96847.31
2019-03-17T00:37:34.138Z,96851.34
2019-03-17T00:40:04.832Z,96846.30
2019-03-17T00:42:35.185Z,96853.22
2019-03-17T00:45:06.651Z,96845.25
2019-03-17T00:47:37.016Z,96852.41
2019-03-17T00:50:07.826Z,96841.73
2019-03-17T00:52:38.295Z,96844.18
2019-03-17T00:55:08.769Z,96845.77
2019-03-17T00:57:39.079Z,96838.30
2019-03-17T01:00:11.220Z,96826.16
2019-03-17T01:02:41.689Z,96821.46
2019-03-17T01:05:12.718Z,96825.03
2019-03-17T01:07:42.989Z,96818.85
2019-03-17T01:10:13.642Z,96814.59
2019-03-17T01:12:45.089Z,96815.36
2019-03-17T01:15:15.654Z,96809.27
2019-03-17T01:17:46.029Z,96799.66
2019-03-17T01:20:16.392Z,96798.60
2019-03-17T01:22:46.692Z,96787.11
2019-03-17T01:25:17.136Z,96786.05
2019-03-17T01:27:47.599Z,96776.17
2019-03-17T01:30:17.910Z,96773.61
2019-03-17T01:32:48.304Z,96768.25
2019-03-17T01:35:18.660Z,96766.39
2019-03-17T01:37:49.024Z,96760.02
2019-03-17T01:40:19.525Z,96758.62
2019-03-17T01:42:49.949Z,96759.48
2019-03-17T01:45:20.293Z,96758.92
2019-03-17T01:47:50.860Z,96756.86
2019-03-17T01:50:22.331Z,96755.72
2019-03-17T01:52:52.729Z,96758.59
2019-03-17T01:55:23.100Z,96759.69
2019-03-17T01:57:53.438Z,96746.31
2019-03-17T02:00:23.773Z,96747.11
2019-03-17T02:02:54.231Z,96736.97
2019-03-17T02:05:24.642Z,96738.47
2019-03-17T02:07:54.952Z,96733.02
2019-03-17T02:10:25.306Z,96724.55
2019-03-17T02:12:56.859Z,96720.27
2019-03-17T02:15:27.171Z,96722.09
2019-03-17T02:17:57.524Z,96707.84
2019-03-17T02:20:28.001Z,96707.93
2019-03-17T02:22:59.461Z,96703.91
2019-03-17T02:25:29.904Z,96699.94
2019-03-17T02:28:00.247Z,96705.55
2019-03-17T02:30:30.475Z,96716.45
2019-03-17T02:33:00.740Z,96718.27
2019-03-17T02:35:38.668Z,96722.02
2019-03-17T02:38:02.988Z,96718.05
2019-03-17T02:40:33.235Z,96709.50
2019-03-17T02:43:03.494Z,96709.59
2019-03-17T02:45:33.801Z,96702.98
2019-03-17T02:48:04.150Z,96706.62
2019-03-17T02:50:34.409Z,96701.83
2019-03-17T02:53:04.737Z,96701.45
2019-03-17T02:55:34.954Z,96701.80
2019-03-17T02:58:05.246Z,96695.72
2019-03-17T03:00:35.482Z,96688.48
2019-03-17T03:03:05.795Z,96688.42
2019-03-17T03:05:36.189Z,96692.81
2019-03-17T03:08:06.493Z,96684.97
2019-03-17T03:10:36.745Z,96679.78
2019-03-17T03:13:07.112Z,96681.35
2019-03-17T03:15:37.398Z,96683.25
2019-03-17T03:18:07.680Z,96670.66
2019-03-17T03:20:37.922Z,96682.72
2019-03-17T03:23:08.112Z,96670.45
2019-03-17T03:25:38.415Z,96671.38
2019-03-17T03:28:08.576Z,96660.06
2019-03-17T03:30:38.947Z,96662.32
2019-03-17T03:33:09.108Z,96658.83
2019-03-17T03:35:39.372Z,96658.94
2019-03-17T03:38:09.547Z,96653.94
2019-03-17T03:40:39.971Z,96650.23
2019-03-17T03:43:10.254Z,96645.94
2019-03-17T03:45:40.604Z,96650.30
2019-03-17T03:48:11.060Z,96642.88
2019-03-17T03:50:41.320Z,96639.94
2019-03-17T03:53:11.755Z,96631.64
2019-03-17T03:55:42.549Z,96629.58
2019-03-17T03:58:13.164Z,96636.95
2019-03-17T04:00:43.505Z,96635.41
2019-03-17T04:03:14.501Z,96636.34
2019-03-17T04:05:44.846Z,96631.40
2019-03-17T04:08:15.080Z,96637.88
2019-03-17T04:10:45.417Z,96640.97
2019-03-17T04:13:15.656Z,96632.95
2019-03-17T04:15:46.005Z,96642.72
2019-03-17T04:18:16.299Z,96634.49
2019-03-17T04:20:46.632Z,96632.86
2019-03-17T04:23:16.925Z,96617.59
2019-03-17T04:25:47.182Z,96623.25
2019-03-17T04:28:17.424Z,96612.70
2019-03-17T04:30:47.764Z,96613.58
2019-03-17T04:33:18.048Z,96607.30
2019-03-17T04:35:48.470Z,96606.16
2019-03-17T04:38:18.790Z,96604.37
2019-03-17T04:40:49.010Z,96607.41
2019-03-17T04:43:19.331Z,96608.44
2019-03-17T04:45:49.525Z,96593.55
2019-03-17T04:48:19.757Z,96588.52
2019-03-17T04:50:50.010Z,96591.52
2019-03-17T04:53:20.195Z,96585.42
2019-03-17T04:55:50.519Z,96582.03
2019-03-17T04:58:20.689Z,96583.16
2019-03-17T05:00:51.111Z,96581.02
2019-03-17T05:03:21.305Z,96582.32
2019-03-17T05:05:51.582Z,96584.04
2019-03-17T05:08:21.808Z,96586.22
2019-03-17T05:10:52.000Z,96587.65
2019-03-17T05:13:22.270Z,96599.80
2019-03-17T05:15:52.439Z,96601.50
2019-03-17T05:18:22.776Z,96603.51
2019-03-17T05:20:53.025Z,96601.94
2019-03-17T05:23:23.258Z,96603.18
2019-03-17T05:25:53.532Z,96599.63
2019-03-17T05:28:23.745Z,96591.81
2019-03-17T05:30:54.022Z,96605.55
2019-03-17T05:33:24.398Z,96597.50
2019-03-17T05:35:54.762Z,96607.10
2019-03-17T05:38:25.064Z,96614.06
2019-03-17T05:40:55.336Z,96602.64
2019-03-17T05:43:25.560Z,96602.80
2019-03-17T05:45:55.822Z,96604.73
2019-03-17T05:48:26.104Z,96588.82
2019-03-17T05:50:56.482Z,96599.61
2019-03-17T05:53:26.663Z,96591.61
2019-03-17T05:55:57.003Z,96595.41
2019-03-17T05:58:27.342Z,96588.98
2019-03-17T06:00:57.889Z,96592.11
2019-03-17T06:03:28.096Z,96593.06
2019-03-17T06:05:58.519Z,96575.61
2019-03-17T06:08:28.814Z,96588.30
2019-03-17T06:10:59.163Z,96579.64
2019-03-17T06:13:29.392Z,96589.63
2019-03-17T06:15:59.765Z,96589.33
2019-03-17T06:18:29.986Z,96601.28
2019-03-17T06:21:00.359Z,96584.06
2019-03-17T06:23:30.551Z,96590.36
2019-03-17T06:26:00.906Z,96598.94
2019-03-17T06:28:31.234Z,96599.47
2019-03-17T06:31:01.525Z,96592.23
2019-03-17T06:33:31.724Z,96595.97
2019-03-17T06:36:01.968Z,96603.70
2019-03-17T06:38:32.098Z,96599.52
2019-03-17T06:41:04.370Z,96599.75
2019-03-17T06:43:34.482Z,96609.20
2019-03-17T06:46:04.814Z,96608.47
2019-03-17T06:48:35.076Z,96615.64
2019-03-17T06:51:05.341Z,96620.66
2019-03-17T06:53:35.719Z,96610.98
2019-03-17T06:56:06.026Z,96614.50
2019-03-17T06:58:36.273Z,96610.95
2019-03-17T07:01:06.779Z,96625.42
2019-03-17T07:03:37.030Z,96612.78
2019-03-17T07:06:07.392Z,96613.38
2019-03-17T07:08:37.713Z,96621.66
2019-03-17T07:11:10.929Z,96622.63
2019-03-17T07:13:40.426Z,96628.71
2019-03-17T07:16:10.582Z,96638.59
2019-03-17T07:18:40.760Z,96636.00
2019-03-17T07:21:10.926Z,96634.91
2019-03-17T07:23:41.163Z,96634.25
2019-03-17T07:26:11.572Z,96636.61
2019-03-17T07:28:41.816Z,96635.62
2019-03-17T07:31:12.044Z,96634.56
2019-03-17T07:33:42.172Z,96635.55
2019-03-17T07:36:12.327Z,96638.63
2019-03-17T07:38:42.644Z,96636.88
2019-03-17T07:41:12.797Z,96640.77
2019-03-17T07:43:42.999Z,96646.85
2019-03-17T07:46:13.219Z,96642.64
2019-03-17T07:48:43.548Z,96644.89
2019-03-17T07:51:13.732Z,96648.23
2019-03-17T07:53:44.011Z,96651.12
2019-03-17T07:56:14.224Z,96644.53
2019-03-17T07:58:44.422Z,96644.42
2019-03-17T08:01:14.896Z,96633.28
2019-03-17T08:03:45.131Z,96642.25
2019-03-17T08:06:15.368Z,96634.04
2019-03-17T08:08:45.579Z,96634.77
2019-03-17T08:11:15.785Z,96631.59
2019-03-17T08:13:45.996Z,96637.84
2019-03-17T08:16:16.251Z,96636.62
2019-03-17T08:18:46.575Z,96631.27
2019-03-17T08:21:16.900Z,96637.52
2019-03-17T08:23:47.106Z,96633.85
2019-03-17T08:26:17.363Z,96638.05
2019-03-17T08:28:47.697Z,96633.23
2019-03-17T08:31:18.089Z,96639.14
2019-03-17T08:33:48.366Z,96641.15
2019-03-17T08:36:18.517Z,96639.74
2019-03-17T08:38:48.912Z,96636.48
2019-03-17T08:41:19.150Z,96636.04
2019-03-17T08:43:54.155Z,96639.98
2019-03-17T08:46:21.552Z,96639.33
2019-03-17T08:48:51.995Z,96632.97
2019-03-17T08:51:22.386Z,96630.63
2019-03-17T08:53:52.761Z,96624.14
2019-03-17T08:56:23.160Z,96625.20
2019-03-17T08:58:53.468Z,96624.77
2019-03-17T09:01:23.762Z,96624.98
2019-03-17T09:03:54.254Z,96625.75
2019-03-17T09:06:24.566Z,96629.01
2019-03-17T09:08:55.850Z,96631.02
2019-03-17T09:11:26.209Z,96626.71
2019-03-17T09:13:56.465Z,96626.53
2019-03-17T09:16:26.685Z,96624.60
2019-03-17T09:18:56.878Z,96623.05
2019-03-17T09:21:27.240Z,96622.46
2019-03-17T09:23:57.415Z,96617.18
2019-03-17T09:26:27.808Z,96625.08
2019-03-17T09:28:58.157Z,96622.05
2019-03-17T09:31:28.461Z,96623.48
2019-03-17T09:33:58.772Z,96622.16
2019-03-17T09:36:28.998Z,96616.64
2019-03-17T09:38:59.284Z,96630.64
2019-03-17T09:41:29.697Z,96614.83
2019-03-17T09:43:59.954Z,96620.66
2019-03-17T09:46:30.249Z,96621.66
2019-03-17T09:49:00.581Z,96615.34
2019-03-17T09:51:30.884Z,96619.30
2019-03-17T09:54:01.142Z,96615.75
2019-03-17T09:56:31.423Z,96614.91
2019-03-17T09:59:01.744Z,96606.34
2019-03-17T10:01:32.074Z,96611.20
2019-03-17T10:04:02.308Z,96611.83
2019-03-17T10:06:32.598Z,96609.81
2019-03-17T10:09:02.784Z,96610.41
2019-03-17T10:11:33.077Z,96608.81
2019-03-17T10:14:03.515Z,96603.12
2019-03-17T10:16:33.922Z,96619.95
2019-03-17T10:19:04.252Z,96603.53
2019-03-17T10:21:34.571Z,96609.36
2019-03-17T10:24:05.026Z,96594.03
2019-03-17T10:26:35.363Z,96598.02
2019-03-17T10:29:05.703Z,96593.52
2019-03-17T10:31:35.990Z,96596.63
2019-03-17T10:34:06.448Z,96591.70
2019-03-17T10:36:36.846Z,96588.88
2019-03-17T10:39:12.718Z,96574.91
2019-03-17T10:42:02.366Z,96582.72
2019-03-17T10:44:32.939Z,96577.78
2019-03-17T10:47:03.191Z,96577.34
2019-03-17T10:49:33.468Z,96577.83
2019-03-17T10:52:05.157Z,96574.48
2019-03-17T10:54:35.534Z,96563.05
2019-03-17T10:57:05.980Z,96566.07
2019-03-17T10:59:36.190Z,96561.33
2019-03-17T11:02:07.623Z,96571.69
2019-03-17T11:04:38.039Z,96561.16
2019-03-17T11:07:08.377Z,96569.55
2019-03-17T11:09:38.702Z,96557.27
2019-03-17T11:12:09.199Z,96573.23
2019-03-17T11:14:39.489Z,96568.30
2019-03-17T11:17:09.880Z,96558.26
2019-03-17T11:19:40.210Z,96567.39
2019-03-17T11:22:10.630Z,96571.92
2019-03-17T11:24:40.939Z,96561.98
2019-03-17T11:27:11.213Z,96570.35
2019-03-17T11:29:41.585Z,96565.86
2019-03-17T11:32:11.983Z,96557.45
2019-03-17T11:34:42.456Z,96563.61
2019-03-17T11:37:12.896Z,96568.88
2019-03-17T11:39:43.239Z,96550.84
2019-03-17T11:42:13.610Z,96572.30
2019-03-17T11:44:43.981Z,96569.61
2019-03-17T11:47:14.420Z,96571.09
2019-03-17T11:49:46.143Z,96573.39
2019-03-17T11:52:16.808Z,96570.90
2019-03-17T11:54:47.237Z,96577.13
2019-03-17T11:57:17.644Z,96573.94
2019-03-17T11:59:48.055Z,96560.34
2019-03-17T12:02:26.483Z,96569.11
2019-03-17T12:04:50.523Z,96566.26
2019-03-17T12:07:20.828Z,96574.74
2019-03-17T12:09:51.158Z,96571.89
2019-03-17T12:12:21.478Z,96562.30
2019-03-17T12:14:51.878Z,96573.30
2019-03-17T12:17:22.189Z,96560.41
2019-03-17T12:20:01.568Z,96582.17
2019-03-17T12:22:32.081Z,96581.21
2019-03-17T12:25:02.476Z,96581.22
2019-03-17T12:27:32.927Z,96582.06
2019-03-17T12:30:03.226Z,96571.87
2019-03-17T12:32:33.514Z,96577.06
2019-03-17T12:35:04.133Z,96582.38
2019-03-17T12:37:34.471Z,96585.95
2019-03-17T12:40:04.977Z,96599.65
2019-03-17T12:42:35.478Z,96599.52
2019-03-17T12:45:06.096Z,96614.63
2019-03-17T12:47:37.506Z,96605.14
2019-03-17T12:50:08.253Z,96610.64
2019-03-17T12:52:38.602Z,96601.33
2019-03-17T12:55:09.096Z,96605.10
2019-03-17T12:57:39.510Z,96615.88
2019-03-17T13:00:13.419Z,96628.54
2019-03-17T13:02:43.709Z,96629.26
2019-03-17T13:05:14.826Z,96636.20
2019-03-17T13:07:45.132Z,96642.77
2019-03-17T13:10:16.796Z,96643.51
2019-03-17T13:12:47.235Z,96647.81
2019-03-17T13:15:17.888Z,96652.23
2019-03-17T13:17:48.321Z,96659.39
2019-03-17T13:20:18.889Z,96655.56
2019-03-17T13:22:49.339Z,96661.05
2019-03-17T13:25:19.742Z,96670.56
2019-03-17T13:27:49.978Z,96674.08
2019-03-17T13:30:20.318Z,96704.80
2019-03-17T13:32:50.673Z,96693.45
2019-03-17T13:35:20.969Z,96732.23
2019-03-17T13:37:51.218Z,96755.95
2019-03-17T13:40:29.306Z,96767.55
2019-03-17T13:42:53.811Z,96787.86
2019-03-17T13:45:24.238Z,96794.79
2019-03-17T13:47:54.620Z,96805.13
2019-03-17T13:50:24.942Z,96818.86
2019-03-17T13:52:55.214Z,96822.58
2019-03-17T13:55:25.576Z,96841.09
2019-03-17T13:57:57.516Z,96860.80
2019-03-17T14:00:27.806Z,96869.57
2019-03-17T14:02:58.106Z,96883.64
2019-03-17T14:05:28.559Z,96908.44
2019-03-17T14:07:58.887Z,96910.94
2019-03-17T14:10:40.309Z,96937.79
2019-03-17T14:13:01.358Z,96930.94
2019-03-17T14:15:31.677Z,96955.73
2019-03-17T14:18:02.070Z,96959.42
2019-03-17T14:20:32.433Z,96950.02
2019-03-17T14:23:02.901Z,96941.80
2019-03-17T14:25:33.281Z,96954.84
2019-03-17T14:28:03.714Z,96959.10
2019-03-17T14:30:34.118Z,96973.90
2019-03-17T14:33:04.586Z,96976.45
2019-03-17T14:35:34.881Z,96969.53
2019-03-17T14:38:05.450Z,96971.33
2019-03-17T14:40:38.552Z,96977.10
2019-03-17T14:43:09.835Z,96995.84
2019-03-17T14:45:40.153Z,96987.38
2019-03-17T14:48:10.404Z,96999.35
2019-03-17T14:50:40.827Z,96988.15
2019-03-17T14:53:11.461Z,96980.48
2019-03-17T14:55:41.761Z,96984.59
2019-03-17T14:58:12.084Z,96995.19
2019-03-17T15:00:42.454Z,96988.88
2019-03-17T15:03:12.797Z,96990.66
2019-03-17T15:05:43.135Z,96994.75
2019-03-17T15:08:13.313Z,96992.88
2019-03-17T15:10:43.626Z,96990.46
2019-03-17T15:13:14.038Z,96989.08
2019-03-17T15:15:44.378Z,96980.61
2019-03-17T15:18:14.820Z,96983.97
2019-03-17T15:20:45.219Z,96985.59
2019-03-17T15:23:15.629Z,96988.26
2019-03-17T15:25:45.944Z,96997.41
2019-03-17T15:28:16.205Z,96986.86
2019-03-17T15:31:00.400Z,96977.52
2019-03-17T15:33:18.498Z,96967.45
2019-03-17T15:35:48.818Z,96975.13
2019-03-17T15:38:19.184Z,96975.78
2019-03-17T15:40:49.477Z,96969.78
2019-03-17T15:43:19.770Z,96982.09
2019-03-17T15:45:50.174Z,96984.33
2019-03-17T15:48:20.415Z,97004.56
2019-03-17T15:50:50.841Z,97017.24
2019-03-17T15:53:21.278Z,97026.84
2019-03-17T15:55:51.529Z,97023.72
2019-03-17T15:58:21.771Z,97020.14
2019-03-17T16:00:52.166Z,97014.95
2019-03-17T16:03:22.482Z,97044.36
2019-03-17T16:05:52.821Z,97052.22
2019-03-17T16:08:23.010Z,97064.67
2019-03-17T16:10:53.424Z,97077.64
2019-03-17T16:13:23.772Z,97086.28
2019-03-17T16:15:54.114Z,97087.73
2019-03-17T16:18:24.348Z,97082.38
2019-03-17T16:20:54.690Z,97081.58
2019-03-17T16:23:25.091Z,97087.83
2019-03-17T16:25:55.544Z,97090.67
2019-03-17T16:28:25.864Z,97101.12
2019-03-17T16:30:56.188Z,97098.59
2019-03-17T16:33:26.454Z,97098.90
2019-03-17T16:35:56.936Z,97102.03
2019-03-17T16:38:27.334Z,97097.90
2019-03-17T16:40:57.779Z,97096.77
2019-03-17T16:43:28.212Z,97099.39
2019-03-17T16:45:58.616Z,97101.03
2019-03-17T16:48:28.908Z,97122.06
2019-03-17T16:50:59.246Z,97113.09
2019-03-17T16:53:29.477Z,97112.23
2019-03-17T16:56:00.042Z,97113.45
2019-03-17T16:58:30.515Z,97119.48
2019-03-17T17:01:00.805Z,97112.80
2019-03-17T17:03:31.034Z,97108.80
2019-03-17T17:06:01.295Z,97122.64
2019-03-17T17:08:31.720Z,97116.77
2019-03-17T17:11:02.371Z,97122.64
2019-03-17T17:13:32.760Z,97128.21
2019-03-17T17:16:03.087Z,97140.14
2019-03-17T17:18:33.378Z,97146.72
2019-03-17T17:21:03.711Z,97156.02
2019-03-17T17:23:34.018Z,97163.14
2019-03-17T17:26:04.403Z,97166.96
2019-03-17T17:28:34.547Z,97179.78
2019-03-17T17:31:04.950Z,97173.64
2019-03-17T17:33:35.257Z,97178.19
2019-03-17T17:36:05.618Z,97187.28
2019-03-17T17:38:35.926Z,97198.55
2019-03-17T17:41:06.682Z,97196.08
2019-03-17T17:43:37.046Z,97191.66
2019-03-17T17:46:07.365Z,97188.37
2019-03-17T17:48:37.786Z,97194.77
2019-03-17T17:51:08.225Z,97190.80
2019-03-17T17:53:38.577Z,97210.45
2019-03-17T17:56:08.903Z,97207.82
2019-03-17T17:58:39.303Z,97198.95
2019-03-17T18:01:09.634Z,97190.23
2019-03-17T18:03:51.183Z,97186.81
2019-03-17T18:06:11.949Z,97206.03
2019-03-17T18:08:42.367Z,97221.14
2019-03-17T18:11:12.730Z,97211.09
2019-03-17T18:13:43.091Z,97214.00
2019-03-17T18:16:13.343Z,97219.75
2019-03-17T18:18:43.746Z,97236.61
2019-03-17T18:21:13.993Z,97226.59
2019-03-17T18:23:44.312Z,97235.59
2019-03-17T18:26:14.644Z,97238.19
2019-03-17T18:28:44.999Z,97245.42
2019-03-17T18:31:15.248Z,97247.14
2019-03-17T18:33:45.498Z,97252.84
2019-03-17T18:36:15.764Z,97273.32
2019-03-17T18:38:46.042Z,97279.16
2019-03-17T18:41:16.315Z,97282.13
2019-03-17T18:43:46.649Z,97283.07
2019-03-17T18:46:16.980Z,97281.91
2019-03-17T18:48:47.207Z,97280.59
2019-03-17T18:51:17.528Z,97263.08
2019-03-17T18:53:47.782Z,97265.64
2019-03-17T18:56:17.987Z,97268.36
2019-03-17T18:58:48.216Z,97279.44
2019-03-17T19:01:18.676Z,97294.92
2019-03-17T19:03:48.834Z,97311.28
2019-03-17T19:06:19.193Z,97338.24
2019-03-17T19:08:49.411Z,97337.88
2019-03-17T19:11:19.640Z,97331.99
2019-03-17T19:13:49.842Z,97336.39
2019-03-17T19:16:20.055Z,97328.13
2019-03-17T19:18:50.310Z,97316.45
2019-03-17T19:21:20.610Z,97316.40
2019-03-17T19:23:51.459Z,97322.19
2019-03-17T19:26:21.798Z,97345.66
2019-03-17T19:28:52.060Z,97340.23
2019-03-17T19:31:24.090Z,97349.86
2019-03-17T19:33:54.264Z,97360.47
2019-03-17T19:36:24.577Z,97372.87
2019-03-17T19:38:54.844Z,97396.12
2019-03-17T19:41:25.071Z,97400.73
2019-03-17T19:43:55.515Z,97398.45
2019-03-17T19:46:25.648Z,97397.38
2019-03-17T19:48:55.802Z,97399.63
2019-03-17T19:51:26.023Z,97390.84
2019-03-17T19:53:56.233Z,97387.91
2019-03-17T19:56:27.535Z,97400.48
2019-03-17T19:58:57.832Z,97406.78
2019-03-17T20:01:27.998Z,97402.31
2019-03-17T20:03:58.153Z,97435.72
2019-03-17T20:06:28.448Z,97438.66
2019-03-17T20:08:58.628Z,97445.56
2019-03-17T20:11:28.834Z,97441.45
2019-03-17T20:13:59.119Z,97446.94
2019-03-17T20:16:29.451Z,97452.61
2019-03-17T20:18:59.808Z,97457.73
2019-03-17T20:21:30.029Z,97451.43
2019-03-17T20:24:00.420Z,97455.90
2019-03-17T20:26:30.632Z,97455.53
2019-03-17T20:29:01.111Z,97456.86
2019-03-17T20:31:31.451Z,97459.48
2019-03-17T20:34:01.759Z,97469.38
2019-03-17T20:36:31.983Z,97467.39
2019-03-17T20:39:02.461Z,97481.77
2019-03-17T20:41:32.690Z,97481.19
2019-03-17T20:44:03.009Z,97473.70
2019-03-17T20:46:33.389Z,97482.64
2019-03-17T20:49:03.664Z,97493.57
2019-03-17T20:51:33.947Z,97494.37
2019-03-17T20:54:04.411Z,97503.17
2019-03-17T20:56:34.672Z,97504.12
2019-03-17T20:59:05.115Z,97505.95
2019-03-17T21:03:29.191Z,97528.92
2019-03-17T21:05:59.551Z,97529.74
2019-03-17T21:08:29.880Z,97542.36
2019-03-17T21:11:00.111Z,97542.25
2019-03-17T21:13:30.499Z,97560.45
2019-03-17T21:16:00.903Z,97564.23
2019-03-17T21:18:31.384Z,97552.00
2019-03-17T21:21:01.533Z,97556.59
2019-03-17T21:23:31.890Z,97551.83
2019-03-17T21:26:02.266Z,97562.81
2019-03-17T21:28:32.462Z,97559.32
2019-03-17T21:31:02.644Z,97572.59
2019-03-17T21:33:32.918Z,97570.52
2019-03-17T21:36:04.310Z,97560.91
2019-03-17T21:38:34.770Z,97573.96
2019-03-17T21:41:07.426Z,97585.64
2019-03-17T21:43:37.909Z,97591.67
2019-03-17T21:46:08.238Z,97582.75
2019-03-17T21:48:38.648Z,97595.73
2019-03-17T21:51:08.829Z,97597.69
2019-03-17T21:53:39.170Z,97609.27
2019-03-17T21:56:09.529Z,97627.61
2019-03-17T21:58:39.799Z,97625.78
2019-03-17T22:01:10.193Z,97626.84
2019-03-17T22:03:40.377Z,97627.73
2019-03-17T22:06:10.731Z,97625.52
2019-03-17T22:08:41.055Z,97621.80
2019-03-17T22:11:11.467Z,97629.94
2019-03-17T22:13:41.713Z,97624.28
2019-03-17T22:16:12.137Z,97624.13
2019-03-17T22:18:42.411Z,97628.30
2019-03-17T22:21:12.921Z,97629.39
2019-03-17T22:23:43.221Z,97638.99
2019-03-17T22:26:13.547Z,97645.10
2019-03-17T22:28:43.932Z,97640.95
2019-03-17T22:31:14.235Z,97636.11
2019-03-17T22:33:44.555Z,97641.17
2019-03-17T22:36:14.898Z,97647.24
2019-03-17T22:38:46.216Z,97645.75
2019-03-17T22:41:16.597Z,97654.84
2019-03-17T22:43:46.786Z,97657.59
2019-03-17T22:46:17.017Z,97664.08
2019-03-17T22:48:47.333Z,97670.34
2019-03-17T22:51:17.652Z,97672.47
2019-03-17T22:53:47.962Z,97666.98
2019-03-17T22:56:18.239Z,97673.88
2019-03-17T22:58:48.545Z,97671.64
2019-03-17T23:01:18.981Z,97672.14
2019-03-17T23:03:49.279Z,97667.27
2019-03-17T23:06:19.633Z,97681.11
2019-03-17T23:08:49.994Z,97675.95
2019-03-17T23:11:20.387Z,97674.72
2019-03-17T23:13:50.671Z,97676.76
2019-03-17T23:16:21.082Z,97670.59
2019-03-17T23:18:51.295Z,97674.55
2019-03-17T23:21:21.792Z,97666.36
2019-03-17T23:23:51.980Z,97661.63
2019-03-17T23:26:22.162Z,97659.63
2019-03-17T23:28:52.381Z,97665.78
2019-03-17T23:31:22.739Z,97671.03
2019-03-17T23:33:53.117Z,97666.30
2019-03-17T23:36:23.455Z,97663.88
2019-03-17T23:38:53.782Z,97665.48
2019-03-17T23:41:24.132Z,97666.80
2019-03-17T23:43:54.434Z,97672.67
2019-03-17T23:46:24.791Z,97676.52
2019-03-17T23:48:54.996Z,97673.90
2019-03-17T23:51:25.395Z,97675.61
2019-03-17T23:53:55.667Z,97674.70
2019-03-17T23:56:26.123Z,97675.09
2019-03-17T23:58:56.449Z,97678.64
